Time;durP1;ratioP1;P1;durP2;ratioP2;P2;SDS_P1;SDS_P2;PMS_P1;PMS_P2;Temp;Humidity;BMP_temperature;BMP_pressure;BME280_temperature;BME280_humidity;BME280_pressure;Samples;Min_cycle;Max_cycle;Signal;HPM_P1;HPM_P2
2021/07/16 00:00:40;;;;;;;;;;;;;;;19.67;71.05;101840.38;5015225;28;780;-69
2021/07/16 00:03:05;;;;;;;;;;;;;;;19.63;71.41;101842.47;5015296;28;1068;-69
2021/07/16 00:05:30;;;;;;;;;;;;;;;19.60;72.05;101841.88;5046988;28;1176;-69
2021/07/16 00:07:56;;;;;;;;;;;;;;;19.60;71.55;101840.03;5014902;28;843;-69
2021/07/16 00:10:21;;;;;;;;;;;;;;;19.61;71.39;101844.47;5014931;28;1914;-69
2021/07/16 00:12:47;;;;;;;;;;;;;;;19.64;70.88;101848.75;5014693;28;902;-69
2021/07/16 00:15:12;;;;;;;;;;;;;;;19.65;71.55;101848.63;5046845;28;1265;-70
2021/07/16 00:17:37;;;;;;;;;;;;;;;19.64;70.88;101848.75;5046666;28;1357;-69
2021/07/16 00:20:02;;;;;;;;;;;;;;;19.63;71.07;101847.91;5014958;28;953;-69
2021/07/16 00:22:27;;;;;;;;;;;;;;;19.64;70.68;101849.59;5014988;28;906;-69
2021/07/16 00:24:52;;;;;;;;;;;;;;;19.62;71.19;101843.47;5014799;28;858;-70
2021/07/16 00:27:17;;;;;;;;;;;;;;;19.60;71.75;101848.16;5014747;28;1248;-69
2021/07/16 00:29:42;;;;;;;;;;;;;;;19.58;72.13;101847.44;5014753;28;1907;-69
2021/07/16 00:32:07;;;;;;;;;;;;;;;19.56;71.16;101846.69;5015029;28;918;-70
2021/07/16 00:34:32;;;;;;;;;;;;;;;19.56;72.20;101848.53;5014633;28;827;-70
2021/07/16 00:36:57;;;;;;;;;;;;;;;19.54;72.01;101843.28;5014717;28;926;-70
2021/07/16 00:39:23;;;;;;;;;;;;;;;19.57;71.11;101853.81;5014926;28;924;-70
2021/07/16 00:41:48;;;;;;;;;;;;;;;19.59;71.29;101846.44;5014231;28;973;-69
2021/07/16 00:44:13;;;;;;;;;;;;;;;19.61;71.65;101849.88;5014413;28;824;-69
2021/07/16 00:46:38;;;;;;;;;;;;;;;19.61;70.38;101847.16;5014524;28;796;-69
2021/07/16 00:49:03;;;;;;;;;;;;;;;19.60;71.19;101850.84;5046240;28;1527;-69
2021/07/16 00:51:28;;;;;;;;;;;;;;;19.60;70.76;101850.84;5014487;28;1886;-69
2021/07/16 00:53:53;;;;;;;;;;;;;;;19.62;70.61;101850.72;5014699;28;1133;-69
2021/07/16 00:56:18;;;;;;;;;;;;;;;19.60;71.07;101844.59;5014414;28;1008;-69
2021/07/16 00:58:43;;;;;;;;;;;;;;;19.59;70.56;101846.44;5014407;28;890;-68
2021/07/16 01:01:08;;;;;;;;;;;;;;;19.58;70.52;101850.13;5046302;28;1435;-69
2021/07/16 01:03:33;;;;;;;;;;;;;;;19.56;71.62;101857.50;5014384;28;1021;-69
2021/07/16 01:06:00;;;;;;;;;;;;;;;19.57;71.16;101844.84;5014311;28;977;-69
2021/07/16 01:08:25;;;;;;;;;;;;;;;19.57;71.08;101850.25;5016629;28;858;-69
2021/07/16 01:10:50;;;;;;;;;;;;;;;19.53;70.92;101852.38;5018200;28;1968;-69
2021/07/16 01:13:15;;;;;;;;;;;;;;;19.53;71.61;101863.19;5017696;28;780;-68
2021/07/16 01:15:40;;;;;;;;;;;;;;;19.54;70.68;101864.91;5018334;28;1122;-69
2021/07/16 01:18:05;;;;;;;;;;;;;;;19.56;70.79;101865.63;5017897;28;1150;-69
2021/07/16 01:20:30;;;;;;;;;;;;;;;19.57;70.04;101859.22;5018118;28;934;-69
2021/07/16 01:22:55;;;;;;;;;;;;;;;19.58;71.30;101860.09;5017653;28;866;-69
2021/07/16 01:25:20;;;;;;;;;;;;;;;19.57;70.38;101861.06;5017694;28;799;-69
2021/07/16 01:27:46;;;;;;;;;;;;;;;19.54;70.91;101862.19;5017439;28;1025;-69
2021/07/16 01:30:11;;;;;;;;;;;;;;;19.54;71.40;101859.50;5017426;28;1890;-69
2021/07/16 01:32:39;;;;;;;;;;;;;;;19.56;70.20;101872.88;5017608;28;827;-69
2021/07/16 01:35:04;;;;;;;;;;;;;;;19.54;70.55;101875.72;5017750;28;906;-69
2021/07/16 01:37:29;;;;;;;;;;;;;;;19.54;71.11;101864.03;5017438;28;1021;-69
2021/07/16 01:39:54;;;;;;;;;;;;;;;19.53;70.84;101865.88;5017406;28;1053;-68
2021/07/16 01:42:19;;;;;;;;;;;;;;;19.54;70.41;101869.44;5017162;28;883;-68
2021/07/16 01:44:44;;;;;;;;;;;;;;;19.54;70.92;101870.31;5017396;28;788;-68
2021/07/16 01:47:09;;;;;;;;;;;;;;;19.52;69.74;101868.75;5017483;28;877;-68
2021/07/16 01:49:34;;;;;;;;;;;;;;;19.52;69.81;101868.75;5017071;28;1962;-68
2021/07/16 01:51:59;;;;;;;;;;;;;;;19.51;69.64;101873.31;5017317;28;1013;-68
2021/07/16 01:54:24;;;;;;;;;;;;;;;19.50;70.37;101866.19;5016817;28;1472;-68
2021/07/16 01:56:50;;;;;;;;;;;;;;;19.49;70.26;101872.53;5016958;28;1202;-68
2021/07/16 01:59:15;;;;;;;;;;;;;;;19.53;69.74;101873.13;5017195;28;1068;-68
2021/07/16 02:01:40;;;;;;;;;;;;;;;19.51;70.57;101865.19;5048810;28;1775;-68
2021/07/16 02:04:05;;;;;;;;;;;;;;;19.52;70.38;101871.47;5048801;28;1503;-68
2021/07/16 02:06:33;;;;;;;;;;;;;;;19.53;69.96;101863.19;5016964;28;1017;-68
2021/07/16 02:08:58;;;;;;;;;;;;;;;19.52;70.39;101866.91;5016790;28;981;-69
2021/07/16 02:11:23;;;;;;;;;;;;;;;19.51;69.94;101862.50;5016653;28;1914;-69
2021/07/16 02:13:48;;;;;;;;;;;;;;;19.51;69.93;101867.03;5016580;28;807;-68
2021/07/16 02:16:13;;;;;;;;;;;;;;;19.51;69.95;101865.19;5016900;28;855;-68
2021/07/16 02:18:38;;;;;;;;;;;;;;;19.47;70.37;101854.72;5016104;28;1026;-68
2021/07/16 02:21:03;;;;;;;;;;;;;;;19.47;70.14;101852.88;5016114;28;803;-69
2021/07/16 02:23:29;;;;;;;;;;;;;;;19.50;69.86;101860.78;5016590;28;823;-68
2021/07/16 02:25:54;;;;;;;;;;;;;;;19.49;69.80;101860.88;5048370;28;811;-69
2021/07/16 02:28:19;;;;;;;;;;;;;;;19.48;69.71;101860.00;5016268;28;1076;-69
2021/07/16 02:30:44;;;;;;;;;;;;;;;19.46;69.39;101856.56;5016448;28;1910;-69
2021/07/16 02:33:09;;;;;;;;;;;;;;;19.45;69.62;101860.28;5016496;28;915;-69
2021/07/16 02:35:34;;;;;;;;;;;;;;;19.46;69.38;101856.56;5016431;28;796;-68
2021/07/16 02:37:59;;;;;;;;;;;;;;;19.48;69.25;101859.16;5016426;28;812;-69
2021/07/16 02:40:24;;;;;;;;;;;;;;;19.48;69.52;101860.00;5016241;28;819;-69
2021/07/16 02:42:49;;;;;;;;;;;;;;;19.48;69.30;101859.16;5016239;28;934;-69
2021/07/16 02:45:15;;;;;;;;;;;;;;;19.48;69.71;101860.00;5016103;28;851;-69
2021/07/16 02:47:40;;;;;;;;;;;;;;;19.49;69.07;101866.28;5016518;28;966;-69
2021/07/16 02:50:05;;;;;;;;;;;;;;;19.45;69.62;101862.97;5016064;28;1963;-69
2021/07/16 02:52:30;;;;;;;;;;;;;;;19.46;69.28;101861.13;5048222;28;1374;-69
2021/07/16 02:54:55;;;;;;;;;;;;;;;19.46;69.40;101861.97;5016240;28;1113;-69
2021/07/16 02:57:20;;;;;;;;;;;;;;;19.45;68.96;101860.28;5047666;28;1634;-69
2021/07/16 02:59:45;;;;;;;;;;;;;;;19.45;69.41;101854.88;5015857;28;1132;-69
2021/07/16 03:02:10;;;;;;;;;;;;;;;19.47;68.40;101858.28;5015946;28;976;-69
2021/07/16 03:04:36;;;;;;;;;;;;;;;19.44;69.50;101855.84;5047632;28;843;-69
2021/07/16 03:07:01;;;;;;;;;;;;;;;19.45;69.46;101862.97;5015726;28;1001;-69
2021/07/16 03:09:26;;;;;;;;;;;;;;;19.43;70.05;101864.94;5015691;28;1964;-69
2021/07/16 03:11:51;;;;;;;;;;;;;;;19.42;69.66;101865.94;5015716;28;823;-69
2021/07/16 03:14:16;;;;;;;;;;;;;;;19.41;69.76;101858.81;5015501;28;1072;-69
2021/07/16 03:16:41;;;;;;;;;;;;;;;19.40;68.46;101867.91;5015642;28;1163;-69
2021/07/16 03:19:06;;;;;;;;;;;;;;;19.39;68.74;101866.19;5015515;28;934;-69
2021/07/16 03:21:31;;;;;;;;;;;;;;;19.40;69.24;101871.47;5015997;28;1005;-69
2021/07/16 03:23:56;;;;;;;;;;;;;;;19.40;69.57;101878.72;5015736;28;957;-69
2021/07/16 03:26:21;;;;;;;;;;;;;;;19.40;68.79;101871.47;5047565;28;1509;-69
2021/07/16 03:28:46;;;;;;;;;;;;;;;19.40;68.80;101870.59;5015237;28;1021;-69
2021/07/16 03:31:11;;;;;;;;;;;;;;;19.41;68.84;101875.03;5014880;28;1890;-69
2021/07/16 03:33:36;;;;;;;;;;;;;;;19.39;69.27;101882.41;5015511;28;934;-70
2021/07/16 03:36:02;;;;;;;;;;;;;;;19.40;68.55;101876.03;5015390;28;815;-69
2021/07/16 03:38:27;;;;;;;;;;;;;;;19.42;68.90;101884.84;5015284;28;1018;-69
2021/07/16 03:40:55;;;;;;;;;;;;;;;19.41;68.68;101880.44;5015527;28;811;-69
2021/07/16 03:43:20;;;;;;;;;;;;;;;19.41;69.69;101875.03;5015066;28;846;-69
2021/07/16 03:45:45;;;;;;;;;;;;;;;19.40;69.14;101871.47;5013993;28;1246;-69
2021/07/16 03:48:10;;;;;;;;;;;;;;;19.41;69.25;101891.25;5015247;28;1085;-70
2021/07/16 03:50:35;;;;;;;;;;;;;;;19.41;69.69;101878.59;5015236;28;1965;-70
2021/07/16 03:53:00;;;;;;;;;;;;;;;19.40;68.78;101876.03;5014954;28;878;-70
2021/07/16 03:55:25;;;;;;;;;;;;;;;19.37;69.26;101884.38;5014884;28;1400;-69
2021/07/16 03:57:51;;;;;;;;;;;;;;;19.35;69.81;101868.28;5014925;28;862;-70
2021/07/16 04:00:16;;;;;;;;;;;;;;;19.37;69.35;101869.03;5015002;28;847;-70
2021/07/16 04:02:41;;;;;;;;;;;;;;;19.38;68.75;101875.28;5015316;28;1144;-70
2021/07/16 04:05:06;;;;;;;;;;;;;;;19.36;69.05;101861.91;5015069;28;867;-69
2021/07/16 04:07:34;;;;;;;;;;;;;;;19.39;68.88;101875.16;5014961;28;878;-69
2021/07/16 04:09:59;;;;;;;;;;;;;;;19.38;68.51;101886.09;5046857;28;1917;-70
2021/07/16 04:12:24;;;;;;;;;;;;;;;19.36;68.99;101882.66;5014653;28;1023;-69
2021/07/16 04:14:49;;;;;;;;;;;;;;;19.36;69.15;101877.25;5046583;28;958;-70
2021/07/16 04:17:14;;;;;;;;;;;;;;;19.36;69.21;101888.06;5015059;28;990;-70
2021/07/16 04:19:39;;;;;;;;;;;;;;;19.35;68.91;101887.22;5046506;28;1515;-70
2021/07/16 04:22:04;;;;;;;;;;;;;;;19.37;68.33;101879.84;5014835;28;1061;-69
2021/07/16 04:24:29;;;;;;;;;;;;;;;19.35;69.01;101878.25;5014764;28;1068;-69
2021/07/16 04:26:54;;;;;;;;;;;;;;;19.31;68.65;101858.75;5046620;28;954;-69
2021/07/16 04:29:20;;;;;;;;;;;;;;;19.33;68.31;101872.16;5014597;28;1001;-69
2021/07/16 04:31:45;;;;;;;;;;;;;;;19.33;68.59;101878.41;5014476;28;1953;-69
2021/07/16 04:34:10;;;;;;;;;;;;;;;19.34;68.66;101879.28;5014747;28;1021;-68
2021/07/16 04:36:35;;;;;;;;;;;;;;;19.32;68.84;101881.25;5014502;28;1267;-68
2021/07/16 04:39:00;;;;;;;;;;;;;;;19.33;68.61;101883.81;5014140;28;1312;-68
2021/07/16 04:41:25;;;;;;;;;;;;;;;19.33;69.20;101891.06;5014150;28;1363;-69
2021/07/16 04:43:50;;;;;;;;;;;;;;;19.31;68.68;101893.91;5015906;28;1304;-69
2021/07/16 04:46:15;;;;;;;;;;;;;;;19.32;68.84;101892.06;5017243;28;1340;-68
2021/07/16 04:48:40;;;;;;;;;;;;;;;19.32;68.60;101895.63;5049011;28;1332;-68
2021/07/16 04:51:05;;;;;;;;;;;;;;;19.31;68.63;101901.16;5017379;28;1890;-70
2021/07/16 04:53:30;;;;;;;;;;;;;;;19.32;68.84;101881.25;5017294;28;1479;-69
2021/07/16 04:55:55;;;;;;;;;;;;;;;19.29;69.24;101884.19;5017263;28;1363;-68
2021/07/16 04:58:20;;;;;;;;;;;;;;;19.31;69.14;101890.34;5017274;28;1372;-69
2021/07/16 05:00:45;;;;;;;;;;;;;;;19.31;69.23;101879.53;5017704;28;1303;-72
2021/07/16 05:03:11;;;;;;;;;;;;;;;19.29;68.46;101882.34;5018017;28;886;-72
2021/07/16 05:05:36;;;;;;;;;;;;;;;19.31;68.19;101890.34;5017096;28;1834;-73
2021/07/16 05:08:01;;;;;;;;;;;;;;;19.30;68.58;101894.03;5017178;28;1434;-68
2021/07/16 05:10:26;;;;;;;;;;;;;;;19.31;68.36;101891.19;5018326;28;1931;-70
2021/07/16 05:12:51;;;;;;;;;;;;;;;19.31;68.55;101893.03;5049630;28;1347;-68
2021/07/16 05:15:16;;;;;;;;;;;;;;;19.33;68.55;101901.88;5017757;28;862;-69
2021/07/16 05:17:41;;;;;;;;;;;;;;;19.33;68.32;101904.59;5018116;28;866;-68
2021/07/16 05:20:06;;;;;;;;;;;;;;;19.33;68.49;101910.00;5017979;28;816;-67
2021/07/16 05:22:31;;;;;;;;;;;;;;;19.32;68.46;101913.69;5017597;28;1348;-68
2021/07/16 05:24:56;;;;;;;;;;;;;;;19.34;68.05;101917.09;5017154;28;1451;-68
2021/07/16 05:27:21;;;;;;;;;;;;;;;19.38;68.34;101915.84;5017125;28;1490;-68
2021/07/16 05:29:47;;;;;;;;;;;;;;;19.36;69.07;101915.09;5015664;28;1894;-68
2021/07/16 05:32:12;;;;;;;;;;;;;;;19.38;69.06;101915.84;5017058;28;1484;-69
2021/07/16 05:34:37;;;;;;;;;;;;;;;19.36;69.25;101913.25;5017014;28;1496;-68
2021/07/16 05:37:02;;;;;;;;;;;;;;;19.38;69.53;101919.41;5016880;28;1464;-68
2021/07/16 05:39:28;;;;;;;;;;;;;;;19.38;70.07;101923.94;5016234;28;2016;-68
2021/07/16 05:41:53;;;;;;;;;;;;;;;19.37;70.39;101920.38;5017463;28;1772;-68
2021/07/16 05:44:18;;;;;;;;;;;;;;;19.38;69.04;101923.94;5017159;28;1733;-68
2021/07/16 05:46:43;;;;;;;;;;;;;;;19.36;69.29;101925.91;5017071;28;1831;-68
2021/07/16 05:49:08;;;;;;;;;;;;;;;19.36;69.55;101928.63;5016698;28;1432;-68
2021/07/16 05:51:33;;;;;;;;;;;;;;;19.36;68.66;101936.72;5016435;28;1952;-68
2021/07/16 05:53:58;;;;;;;;;;;;;;;19.35;69.26;101929.59;5016930;28;1130;-68
2021/07/16 05:56:23;;;;;;;;;;;;;;;19.33;68.52;101934.31;5016565;28;1629;-69
2021/07/16 05:58:49;;;;;;;;;;;;;;;19.33;68.41;101934.31;5016456;28;1467;-68
2021/07/16 06:01:14;;;;;;;;;;;;;;;19.33;68.40;101931.59;5017200;28;1084;-68
2021/07/16 06:03:39;;;;;;;;;;;;;;;19.33;67.91;101932.47;5017062;28;820;-68
2021/07/16 06:06:04;;;;;;;;;;;;;;;19.33;68.56;101935.19;5016493;28;1496;-68
2021/07/16 06:08:29;;;;;;;;;;;;;;;19.33;68.69;101931.59;5016715;28;910;-68
2021/07/16 06:10:54;;;;;;;;;;;;;;;19.32;68.22;101936.16;5016772;28;1910;-68
2021/07/16 06:13:19;;;;;;;;;;;;;;;19.32;68.31;101933.47;5017232;28;807;-68
2021/07/16 06:15:44;;;;;;;;;;;;;;;19.34;68.83;101934.19;5016772;28;1561;-69
2021/07/16 06:18:10;;;;;;;;;;;;;;;19.38;68.76;101932.91;5016718;28;1605;-68
2021/07/16 06:20:35;;;;;;;;;;;;;;;19.39;69.29;101939.19;5016499;28;1622;-68
2021/07/16 06:23:00;;;;;;;;;;;;;;;19.34;69.50;101939.59;5016592;28;1593;-68
2021/07/16 06:25:25;;;;;;;;;;;;;;;19.33;69.76;101942.41;5045879;28;1558;-68
2021/07/16 06:27:50;;;;;;;;;;;;;;;19.35;68.92;101948.53;5016955;28;787;-69
2021/07/16 06:30:15;;;;;;;;;;;;;;;19.32;69.17;101954.22;5016234;28;1902;-69
2021/07/16 06:32:41;;;;;;;;;;;;;;;19.33;69.00;101953.22;5043163;28;1534;-70
2021/07/16 06:35:06;;;;;;;;;;;;;;;19.32;69.28;101955.09;5016497;28;1503;-70
2021/07/16 06:37:31;;;;;;;;;;;;;;;19.32;68.44;101956.94;5016193;28;1523;-71
2021/07/16 06:39:57;;;;;;;;;;;;;;;19.32;68.87;101973.16;5016378;28;957;-69
2021/07/16 06:42:22;;;;;;;;;;;;;;;19.31;68.13;101966.03;5016739;28;794;-70
2021/07/16 06:44:47;;;;;;;;;;;;;;;19.32;67.86;101976.69;5016042;28;997;-71
2021/07/16 06:47:12;;;;;;;;;;;;;;;19.32;68.42;101975.84;5016057;28;1004;-70
2021/07/16 06:49:38;;;;;;;;;;;;;;;19.32;67.96;101978.56;5016061;28;1965;-70
2021/07/16 06:52:03;;;;;;;;;;;;;;;19.31;67.75;101974.13;5016027;28;788;-71
2021/07/16 06:54:28;;;;;;;;;;;;;;;19.30;67.74;101975.97;5015846;28;1245;-67
2021/07/16 06:56:53;;;;;;;;;;;;;;;19.29;68.59;101973.41;5015649;28;1401;-69
2021/07/16 06:59:18;;;;;;;;;;;;;;;19.28;67.67;101968.97;5015673;28;1137;-69
2021/07/16 07:01:44;;;;;;;;;;;;;;;19.29;67.77;101976.09;5015845;28;1225;-69
2021/07/16 07:04:09;;;;;;;;;;;;;;;19.29;68.16;101968.84;5015305;28;1083;-69
2021/07/16 07:06:34;;;;;;;;;;;;;;;19.29;66.98;101978.81;5014825;28;1327;-69
2021/07/16 07:08:59;;;;;;;;;;;;;;;19.29;67.42;101978.81;5015185;28;1348;-69
2021/07/16 07:11:24;;;;;;;;;;;;;;;19.29;67.01;101978.81;5015566;28;1964;-69
2021/07/16 07:13:49;;;;;;;;;;;;;;;19.28;67.77;101977.09;5015431;28;1154;-70
2021/07/16 07:16:16;;;;;;;;;;;;;;;19.27;67.35;101991.56;5015061;28;1260;-69
2021/07/16 07:18:41;;;;;;;;;;;;;;;19.28;67.48;101988.75;5016041;28;846;-69
2021/07/16 07:21:06;;;;;;;;;;;;;;;19.27;67.58;101999.69;5030839;28;1185;-69
2021/07/16 07:23:31;;;;;;;;;;;;;;;19.28;67.94;101998.69;5015437;28;1018;-68
2021/07/16 07:25:56;;;;;;;;;;;;;;;19.27;67.81;101994.28;5015462;28;1065;-68
2021/07/16 07:28:21;;;;;;;;;;;;;;;19.28;67.19;102004.09;5015388;28;1015;-68
2021/07/16 07:30:46;;;;;;;;;;;;;;;19.26;67.96;102011.47;5015131;28;1957;-70
2021/07/16 07:33:11;;;;;;;;;;;;;;;19.26;67.27;102003.38;5015509;28;1017;-69
2021/07/16 07:35:36;;;;;;;;;;;;;;;19.26;66.96;102008.78;5030340;28;1368;-70
2021/07/16 07:38:02;;;;;;;;;;;;;;;19.26;67.17;102006.94;5014750;28;1584;-68
2021/07/16 07:40:27;;;;;;;;;;;;;;;19.25;67.51;102004.34;5015329;28;1050;-68
2021/07/16 07:42:52;;;;;;;;;;;;;;;19.27;67.22;102007.78;5015099;28;1056;-69
2021/07/16 07:45:17;;;;;;;;;;;;;;;19.25;67.23;102005.22;5015128;28;954;-69
2021/07/16 07:47:42;;;;;;;;;;;;;;;19.26;67.03;102014.19;5015153;28;819;-70
2021/07/16 07:50:07;;;;;;;;;;;;;;;19.25;66.74;102009.75;5015504;28;2007;-67
2021/07/16 07:52:33;;;;;;;;;;;;;;;19.25;66.84;102007.91;5015312;28;808;-67
2021/07/16 07:54:58;;;;;;;;;;;;;;;19.26;67.00;102017.75;5046817;28;1304;-68
2021/07/16 07:57:23;;;;;;;;;;;;;;;19.25;67.83;102004.34;5014620;28;1548;-68
2021/07/16 07:59:48;;;;;;;;;;;;;;;19.24;67.39;102013.44;5014670;28;1129;-68
2021/07/16 08:02:13;;;;;;;;;;;;;;;19.25;67.15;102015.16;5014895;28;1065;-68
2021/07/16 08:04:38;;;;;;;;;;;;;;;19.24;66.90;102013.44;5015266;28;1106;-68
2021/07/16 08:07:03;;;;;;;;;;;;;;;19.24;66.95;102016.16;5014544;28;1963;-69
2021/07/16 08:09:28;;;;;;;;;;;;;;;19.23;66.77;102020.69;5014805;28;1134;-71
2021/07/16 08:11:53;;;;;;;;;;;;;;;19.22;66.49;102023.53;5015399;28;1957;-70
2021/07/16 08:14:18;;;;;;;;;;;;;;;19.21;66.58;102024.50;5015324;28;815;-69
2021/07/16 08:16:46;;;;;;;;;;;;;;;19.19;66.40;102021.94;5014977;28;1010;-68
2021/07/16 08:19:11;;;;;;;;;;;;;;;19.18;65.82;102028.31;5018751;28;859;-69
2021/07/16 08:21:36;;;;;;;;;;;;;;;19.17;66.40;102025.78;5051205;28;1375;-70
2021/07/16 08:24:01;;;;;;;;;;;;;;;19.18;66.73;102024.75;5019239;28;1065;-70
2021/07/16 08:26:26;;;;;;;;;;;;;;;19.21;66.81;102027.22;5019299;28;903;-71
2021/07/16 08:28:51;;;;;;;;;;;;;;;19.22;66.56;102031.63;5019015;28;874;-70
2021/07/16 08:31:16;;;;;;;;;;;;;;;19.22;66.61;102026.22;5019374;28;1963;-69
2021/07/16 08:33:41;;;;;;;;;;;;;;;19.23;66.90;102030.66;5019440;28;973;-70
2021/07/16 08:36:07;;;;;;;;;;;;;;;19.22;67.39;102037.03;5019251;28;855;-69
2021/07/16 08:38:32;;;;;;;;;;;;;;;19.23;66.57;102022.53;5019228;28;985;-70
2021/07/16 08:40:57;;;;;;;;;;;;;;;19.22;67.38;102027.09;5019121;28;906;-70
2021/07/16 08:43:23;;;;;;;;;;;;;;;19.22;67.51;102028.94;5019049;28;784;-69
2021/07/16 08:45:48;;;;;;;;;;;;;;;19.20;66.57;102031.75;5018874;28;1170;-69
2021/07/16 08:48:13;;;;;;;;;;;;;;;19.20;66.87;102039.88;5050156;28;1273;-68
2021/07/16 08:50:39;;;;;;;;;;;;;;;19.20;67.36;102044.41;5018357;28;1890;-69
2021/07/16 08:53:04;;;;;;;;;;;;;;;19.22;67.41;102042.44;5018365;28;784;-69
2021/07/16 08:55:41;;;;;;;;;;;;;;;19.19;66.58;102043.56;5018201;28;1363;-69
2021/07/16 08:58:06;;;;;;;;;;;;;;;19.22;66.83;102046.00;5018944;28;866;-70
2021/07/16 09:00:31;;;;;;;;;;;;;;;19.20;66.75;102047.13;5018061;28;800;-69
2021/07/16 09:02:57;;;;;;;;;;;;;;;19.20;66.81;102044.41;5018257;28;946;-69
2021/07/16 09:05:22;;;;;;;;;;;;;;;19.22;67.00;102042.44;5049886;28;1110;-68
2021/07/16 09:07:49;;;;;;;;;;;;;;;19.24;67.13;102045.88;5018103;28;1017;-69
2021/07/16 09:10:14;;;;;;;;;;;;;;;19.23;67.39;102047.72;5018357;28;1910;-68
2021/07/16 09:12:39;;;;;;;;;;;;;;;19.24;66.51;102054.00;5017767;28;823;-66
2021/07/16 09:15:04;;;;;;;;;;;;;;;19.23;66.96;102046.88;5017826;28;1002;-68
2021/07/16 09:17:32;;;;;;;;;;;;;;;19.24;67.71;102049.44;5018002;28;1255;-70
2021/07/16 09:19:57;;;;;;;;;;;;;;;19.25;65.88;102042.19;5049370;28;1227;-70
2021/07/16 09:22:22;;;;;;;;;;;;;;;19.25;66.26;102047.59;5049677;28;1188;-70
2021/07/16 09:24:47;;;;;;;;;;;;;;;19.27;66.03;102056.44;5049977;28;942;-70
2021/07/16 09:27:12;;;;;;;;;;;;;;;19.27;66.71;102053.75;5017993;28;856;-70
2021/07/16 09:29:37;;;;;;;;;;;;;;;19.27;66.57;102045.63;5048616;28;1927;-70
2021/07/16 09:32:02;;;;;;;;;;;;;;;19.27;66.85;102051.91;5017492;28;870;-70
2021/07/16 09:34:27;;;;;;;;;;;;;;;19.29;66.78;102059.88;5017578;28;844;-71
2021/07/16 09:36:53;;;;;;;;;;;;;;;19.29;66.91;102054.47;5017260;28;831;-70
2021/07/16 09:39:20;;;;;;;;;;;;;;;19.27;66.88;102060.00;5049283;28;1390;-70
2021/07/16 09:41:45;;;;;;;;;;;;;;;19.29;67.20;102066.16;5017718;28;866;-70
2021/07/16 09:44:10;;;;;;;;;;;;;;;19.30;66.71;102061.59;5048977;28;1638;-69
2021/07/16 09:46:35;;;;;;;;;;;;;;;19.29;66.27;102076.09;5017242;28;1049;-70
2021/07/16 09:49:00;;;;;;;;;;;;;;;19.29;66.44;102073.41;5017189;28;856;-70
2021/07/16 09:51:26;;;;;;;;;;;;;;;19.29;66.39;102076.09;5017326;28;1965;-70
2021/07/16 09:53:51;;;;;;;;;;;;;;;19.31;66.91;102066.03;5017357;28;1248;-70
2021/07/16 09:56:17;;;;;;;;;;;;;;;19.31;66.47;102069.59;5017255;28;855;-70
2021/07/16 09:58:42;;;;;;;;;;;;;;;19.31;66.69;102066.88;5016927;28;895;-70
2021/07/16 10:01:07;;;;;;;;;;;;;;;19.32;66.78;102062.34;5016925;28;910;-70
2021/07/16 10:03:32;;;;;;;;;;;;;;;19.32;67.09;102065.91;5017071;28;827;-70
2021/07/16 10:05:57;;;;;;;;;;;;;;;19.33;67.11;102069.47;5016847;28;867;-70
2021/07/16 10:08:22;;;;;;;;;;;;;;;19.34;66.57;102077.44;5016764;28;973;-71
2021/07/16 10:10:48;;;;;;;;;;;;;;;19.35;66.55;102075.56;5016720;28;1923;-70
2021/07/16 10:13:13;;;;;;;;;;;;;;;19.35;66.88;102079.13;5016580;28;913;-70
2021/07/16 10:15:38;;;;;;;;;;;;;;;19.36;67.12;102072.75;5016593;28;1119;-70
2021/07/16 10:18:05;;;;;;;;;;;;;;;19.35;65.58;102072.88;5016965;28;1021;-71
2021/07/16 10:20:30;;;;;;;;;;;;;;;19.35;65.49;102081.84;5017645;28;827;-71
2021/07/16 10:22:55;;;;;;;;;;;;;;;19.35;66.00;102080.97;5048437;28;1576;-71
2021/07/16 10:25:21;;;;;;;;;;;;;;;19.35;66.54;102075.56;5016552;28;787;-71
2021/07/16 10:27:46;;;;;;;;;;;;;;;19.36;66.23;102080.84;5017147;28;787;-71
2021/07/16 10:30:12;;;;;;;;;;;;;;;19.36;65.77;102077.28;5016611;28;1959;-71
2021/07/16 10:32:37;;;;;;;;;;;;;;;19.39;65.74;102083.31;5016497;28;914;-71
2021/07/16 10:35:02;;;;;;;;;;;;;;;19.38;66.40;102076.19;5016474;28;969;-71
2021/07/16 10:37:27;;;;;;;;;;;;;;;19.38;66.11;102083.44;5016549;28;831;-70
2021/07/16 10:39:55;;;;;;;;;;;;;;;19.38;66.45;102086.13;5016249;28;1060;-70
2021/07/16 10:42:20;;;;;;;;;;;;;;;19.39;66.04;102083.31;5015959;28;799;-70
2021/07/16 10:44:45;;;;;;;;;;;;;;;19.39;65.94;102079.75;5016058;28;874;-70
2021/07/16 10:47:10;;;;;;;;;;;;;;;19.39;66.99;102077.91;5016214;28;1009;-71
2021/07/16 10:49:35;;;;;;;;;;;;;;;19.39;66.66;102077.91;5016121;28;962;-71
2021/07/16 10:52:00;;;;;;;;;;;;;;;19.42;66.22;102076.81;5015923;28;1951;-70
2021/07/16 10:54:26;;;;;;;;;;;;;;;19.41;66.29;102085.91;5016355;28;1368;-70
2021/07/16 10:56:51;;;;;;;;;;;;;;;19.44;66.49;102088.34;5016123;28;1025;-70
2021/07/16 10:59:16;;;;;;;;;;;;;;;19.42;66.44;102095.72;5016116;28;851;-71
2021/07/16 11:01:41;;;;;;;;;;;;;;;19.44;66.31;102096.47;5015815;28;1029;-71
2021/07/16 11:04:07;;;;;;;;;;;;;;;19.43;66.22;102092.03;5016000;28;881;-71
2021/07/16 11:06:32;;;;;;;;;;;;;;;19.44;65.70;102091.06;5047652;28;858;-70
2021/07/16 11:08:58;;;;;;;;;;;;;;;19.46;66.20;102099.03;5015654;28;1173;-70
2021/07/16 11:11:23;;;;;;;;;;;;;;;19.44;66.07;102085.66;5016330;28;1902;-70
2021/07/16 11:13:49;;;;;;;;;;;;;;;19.47;65.95;102093.50;5015438;28;883;-70
2021/07/16 11:16:14;;;;;;;;;;;;;;;19.47;66.06;102096.22;5047459;28;1387;-71
2021/07/16 11:18:39;;;;;;;;;;;;;;;19.47;65.55;102092.66;5015703;28;927;-70
2021/07/16 11:21:04;;;;;;;;;;;;;;;19.46;65.93;102099.91;5015531;28;811;-70
2021/07/16 11:23:29;;;;;;;;;;;;;;;19.49;64.44;102104.19;5016098;28;1069;-71
2021/07/16 11:25:54;;;;;;;;;;;;;;;19.49;65.79;102091.53;5015500;28;898;-71
2021/07/16 11:28:19;;;;;;;;;;;;;;;19.48;65.99;102100.63;5015478;28;815;-70
2021/07/16 11:30:45;;;;;;;;;;;;;;;19.50;66.10;102097.84;5015253;28;1955;-70
2021/07/16 11:33:11;;;;;;;;;;;;;;;19.49;65.98;102091.53;5015762;28;783;-71
2021/07/16 11:35:37;;;;;;;;;;;;;;;19.52;65.60;102093.16;5015628;28;838;-70
2021/07/16 11:38:02;;;;;;;;;;;;;;;19.52;65.26;102087.75;5015502;28;842;-71
2021/07/16 11:40:27;;;;;;;;;;;;;;;19.52;65.91;102088.63;5015180;28;1013;-71
2021/07/16 11:42:52;;;;;;;;;;;;;;;19.52;65.53;102091.34;5015225;28;855;-70
2021/07/16 11:45:17;;;;;;;;;;;;;;;19.54;65.69;102100.16;5015027;28;863;-71
2021/07/16 11:47:42;;;;;;;;;;;;;;;19.54;65.66;102100.16;5015501;28;1061;-70
2021/07/16 11:50:07;;;;;;;;;;;;;;;19.55;65.67;102098.31;5015110;28;1894;-71
2021/07/16 11:52:33;;;;;;;;;;;;;;;19.54;65.62;102102.84;5014915;28;910;-70
2021/07/16 11:54:58;;;;;;;;;;;;;;;19.54;64.92;102102.84;5014835;28;1296;-70
2021/07/16 11:57:23;;;;;;;;;;;;;;;19.58;65.43;102101.63;5015173;28;943;-71
2021/07/16 11:59:48;;;;;;;;;;;;;;;19.59;65.16;102103.34;5014920;28;784;-71
2021/07/16 12:02:13;;;;;;;;;;;;;;;19.57;65.53;102088.22;5015046;28;906;-70
2021/07/16 12:04:38;;;;;;;;;;;;;;;19.58;65.92;102087.22;5015206;28;862;-71
2021/07/16 12:07:04;;;;;;;;;;;;;;;19.57;66.01;102089.06;5014980;28;859;-71
2021/07/16 12:09:29;;;;;;;;;;;;;;;19.60;64.73;102101.50;5014840;28;807;-70
2021/07/16 12:11:54;;;;;;;;;;;;;;;19.61;65.28;102092.41;5014817;28;1910;-70
2021/07/16 12:14:19;;;;;;;;;;;;;;;19.63;65.19;102088.56;5014683;28;942;-70
2021/07/16 12:16:44;;;;;;;;;;;;;;;19.63;65.18;102085.00;5015128;28;866;-71
2021/07/16 12:19:09;;;;;;;;;;;;;;;19.61;65.64;102082.44;5046596;28;846;-71
2021/07/16 12:21:35;;;;;;;;;;;;;;;19.63;65.89;102080.47;5015044;28;1001;-70
2021/07/16 12:24:00;;;;;;;;;;;;;;;19.63;64.93;102093.13;5014958;28;850;-70
2021/07/16 12:26:25;;;;;;;;;;;;;;;19.66;65.55;102096.44;5014801;28;910;-70
2021/07/16 12:28:50;;;;;;;;;;;;;;;19.64;65.44;102081.31;5015007;28;830;-70
2021/07/16 12:31:15;;;;;;;;;;;;;;;19.67;64.99;102090.03;5014534;28;1942;-71
2021/07/16 12:33:45;;;;;;;;;;;;;;;19.67;65.60;102097.31;5014716;28;842;-71
2021/07/16 12:36:11;;;;;;;;;;;;;;;19.67;64.54;102098.16;5015160;28;763;-70
2021/07/16 12:38:44;;;;;;;;;;;;;;;19.69;65.45;102096.19;5014660;28;1069;-70